Time;durP1;ratioP1;P1;durP2;ratioP2;P2;SDS_P1;SDS_P2;PMS_P1;PMS_P2;Temp;Humidity;BMP_temperature;BMP_pressure;BME280_temperature;BME280_humidity;BME280_pressure;Samples;Min_cycle;Max_cycle;Signal;HPM_P1;HPM_P2
2022/07/02 00:01:20;;;;;;;16.17;12.50;;;;;;;18.58;89.79;94730.14;1639403;84;21113;-53
2022/07/02 00:03:58;;;;;;;16.10;11.45;;;;;;;18.55;89.90;94726.96;1662461;85;21408;-53
2022/07/02 00:06:29;;;;;;;15.80;12.23;;;;;;;18.52;90.12;94724.40;1665562;85;21695;-52
2022/07/02 00:08:57;;;;;;;19.20;12.50;;;;;;;18.52;90.19;94728.58;1666897;84;21069;-52
2022/07/02 00:11:25;;;;;;;16.10;12.85;;;;;;;18.49;90.23;94722.62;1666776;84;21081;-53
2022/07/02 00:13:54;;;;;;;17.60;13.00;;;;;;;18.45;90.33;94719.31;1668787;85;21088;-53
2022/07/02 00:16:22;;;;;;;15.88;12.75;;;;;;;18.43;90.30;94719.80;1655455;84;21579;-53
2022/07/02 00:18:51;;;;;;;14.40;11.50;;;;;;;18.41;90.17;94722.94;1625028;85;20994;-52
2022/07/02 00:21:19;;;;;;;16.52;12.50;;;;;;;18.40;90.14;94722.80;1628567;86;21468;-52
2022/07/02 00:23:47;;;;;;;15.18;12.60;;;;;;;18.36;90.21;94727.85;1626118;86;21036;-53
2022/07/02 00:26:23;;;;;;;14.50;12.95;;;;;;;18.33;90.17;94725.45;1628745;86;21226;-53
2022/07/02 00:28:55;;;;;;;14.73;12.20;;;;;;;18.25;89.92;94722.95;1608176;88;21713;-53
2022/07/02 00:31:23;;;;;;;14.00;12.13;;;;;;;18.19;90.31;94730.52;1608220;88;21143;-53
2022/07/02 00:33:50;;;;;;;14.05;11.43;;;;;;;18.20;90.54;94724.30;1608086;88;21106;-53
2022/07/02 00:36:22;;;;;;;15.03;12.20;;;;;;;18.21;90.55;94726.60;1608294;88;21040;-53
2022/07/02 00:38:50;;;;;;;16.62;12.80;;;;;;;18.20;90.68;94727.86;1607573;87;21791;-53
2022/07/02 00:41:19;;;;;;;16.27;12.85;;;;;;;18.19;90.62;94722.16;1657790;85;20982;-53
2022/07/02 00:43:47;;;;;;;15.25;13.48;;;;;;;18.18;90.36;94717.72;1656101;85;21070;-53
2022/07/02 00:46:15;;;;;;;19.85;12.63;;;;;;;18.17;90.34;94722.52;1656248;85;21119;-52
2022/07/02 00:48:43;;;;;;;16.85;12.43;;;;;;;18.18;90.15;94723.29;1643842;85;21149;-53
2022/07/02 00:51:11;;;;;;;14.68;12.85;;;;;;;18.18;90.34;94723.42;1652741;85;21232;-54
2022/07/02 00:53:39;;;;;;;17.50;12.58;;;;;;;18.18;90.59;94728.86;1670282;85;21443;-53
2022/07/02 00:56:07;;;;;;;13.83;12.25;;;;;;;18.17;90.78;94725.30;1661360;85;21491;-52
2022/07/02 00:58:35;;;;;;;17.90;12.00;;;;;;;18.15;90.40;94728.47;1671203;85;21125;-53
2022/07/02 01:01:03;;;;;;;15.60;12.33;;;;;;;18.13;90.50;94724.77;1658521;85;21276;-53
2022/07/02 01:03:31;;;;;;;14.98;12.68;;;;;;;18.10;90.57;94720.81;1661394;85;21277;-53
2022/07/02 01:05:59;;;;;;;17.15;14.60;;;;;;;18.09;90.70;94720.69;1665511;85;21079;-53
2022/07/02 01:11:15;;;;;;;14.43;11.65;;;;;;;18.06;90.92;94722.45;1661455;85;21201;-53
2022/07/02 01:13:44;;;;;;;14.33;11.73;;;;;;;18.03;90.99;94724.06;1656408;85;21105;-53
2022/07/02 01:16:12;;;;;;;17.77;13.35;;;;;;;17.99;91.29;94721.50;1656449;84;21196;-52
2022/07/02 01:18:40;;;;;;;19.32;14.23;;;;;;;17.97;91.41;94721.23;1661003;85;21013;-52
2022/07/02 01:21:09;;;;;;;16.65;12.68;;;;;;;17.95;91.37;94718.80;1660616;84;21035;-54
2022/07/02 01:23:37;;;;;;;13.88;12.47;;;;;;;17.94;91.29;94725.02;1659953;85;21010;-53
2022/07/02 01:26:06;;;;;;;13.15;11.68;;;;;;;17.89;91.10;94727.14;1656020;85;21455;-54
2022/07/02 01:28:35;;;;;;;15.45;12.05;;;;;;;17.88;91.22;94730.41;1664598;84;21125;-52
2022/07/02 01:31:03;;;;;;;16.82;12.63;;;;;;;17.89;91.45;94735.48;1660745;84;21541;-53
2022/07/02 01:33:32;;;;;;;18.10;13.68;;;;;;;17.93;91.28;94735.23;1675456;85;21007;-53
2022/07/02 01:36:00;;;;;;;16.82;12.33;;;;;;;17.89;90.82;94724.97;1664361;84;21491;-52
2022/07/02 01:38:29;;;;;;;19.00;14.07;;;;;;;17.86;90.94;94723.92;1671541;85;21044;-53
2022/07/02 01:41:38;;;;;;;16.55;12.68;;;;;;;17.88;91.30;94723.45;1608785;87;21539;-54
2022/07/02 01:43:26;;;;;;;14.93;12.78;;;;;;;17.91;90.76;94726.63;1614716;87;21259;-53
2022/07/02 01:45:54;;;;;;;15.03;13.43;;;;;;;17.90;90.44;94729.27;1652473;85;21593;-52
2022/07/02 01:48:22;;;;;;;19.98;14.55;;;;;;;17.86;90.51;94727.35;1662362;85;21026;-53
2022/07/02 01:50:50;;;;;;;14.00;11.70;;;;;;;17.81;90.57;94726.69;1654889;85;21018;-53
2022/07/02 01:53:19;;;;;;;16.02;12.47;;;;;;;17.80;90.86;94732.88;1663101;85;21815;-53
2022/07/02 01:55:48;;;;;;;17.85;11.80;;;;;;;17.76;90.70;94728.78;1654982;85;21585;-52
2022/07/02 01:58:17;;;;;;;15.60;12.65;;;;;;;17.71;90.73;94735.84;1662435;85;21049;-53
2022/07/02 02:00:45;;;;;;;14.83;13.20;;;;;;;17.67;90.88;94730.36;1659049;85;21041;-52
2022/07/02 02:03:13;;;;;;;15.15;13.58;;;;;;;17.65;91.01;94732.88;1661307;85;20996;-52
2022/07/02 02:05:41;;;;;;;15.38;11.95;;;;;;;17.65;91.06;94730.09;1663200;85;21213;-53
2022/07/02 02:08:09;;;;;;;18.07;12.60;;;;;;;17.65;90.77;94739.19;1659485;85;20978;-52
2022/07/02 02:10:37;;;;;;;15.70;12.95;;;;;;;17.62;90.61;94747.77;1656436;84;20979;-52
2022/07/02 02:13:06;;;;;;;15.43;12.73;;;;;;;17.58;90.83;94737.47;1663367;84;21046;-52
2022/07/02 02:15:34;;;;;;;15.50;13.05;;;;;;;17.53;90.91;94739.58;1662127;85;21133;-52
2022/07/02 02:18:03;;;;;;;14.63;12.43;;;;;;;17.48;91.38;94747.26;1660157;84;21244;-52
2022/07/02 02:20:32;;;;;;;16.95;11.90;;;;;;;17.44;91.25;94746.72;1632559;85;21090;-52
2022/07/02 02:23:01;;;;;;;15.00;11.95;;;;;;;17.37;91.34;94735.40;1655027;85;21376;-53
2022/07/02 02:25:29;;;;;;;14.90;12.90;;;;;;;17.33;91.45;94741.00;1652959;85;20993;-53
2022/07/02 02:27:58;;;;;;;15.00;13.50;;;;;;;17.31;91.82;94740.73;1660794;85;20975;-53
2022/07/02 02:30:26;;;;;;;13.50;12.10;;;;;;;17.33;91.84;94746.57;1640822;85;21251;-53
2022/07/02 02:32:54;;;;;;;15.32;12.98;;;;;;;17.32;91.63;94749.22;1656832;85;20947;-54
2022/07/02 02:35:22;;;;;;;13.25;11.95;;;;;;;17.37;91.80;94758.27;1658739;85;21168;-53
2022/07/02 02:37:51;;;;;;;27.42;14.50;;;;;;;17.42;91.48;94761.11;1661360;85;21462;-53
2022/07/02 02:40:18;;;;;;;18.10;12.50;;;;;;;17.43;91.45;94771.62;1659124;85;21597;-52
2022/07/02 02:42:47;;;;;;;19.02;13.10;;;;;;;17.37;91.31;94769.39;1669222;85;21859;-53
2022/07/02 02:45:15;;;;;;;20.20;12.90;;;;;;;17.27;91.53;94761.05;1662595;85;21435;-53
2022/07/02 02:47:44;;;;;;;17.95;12.53;;;;;;;17.20;91.59;94765.63;1665514;85;20993;-53
2022/07/02 02:50:14;;;;;;;18.67;12.68;;;;;;;17.15;91.72;94763.56;1635058;86;21034;-53
2022/07/02 02:52:42;;;;;;;16.75;11.80;;;;;;;17.14;91.99;94770.38;1595915;88;21096;-53
2022/07/02 02:55:10;;;;;;;18.92;12.88;;;;;;;17.16;92.12;94772.05;1600938;88;21790;-53
2022/07/02 02:57:38;;;;;;;15.50;12.63;;;;;;;17.15;92.28;94770.52;1601950;88;21312;-53
2022/07/02 03:00:07;;;;;;;20.85;13.05;;;;;;;17.13;92.00;94768.85;1663744;85;21027;-52
2022/07/02 03:02:36;;;;;;;17.25;12.47;;;;;;;17.07;91.91;94770.17;1655455;84;21105;-53
2022/07/02 03:05:05;;;;;;;13.80;11.30;;;;;;;17.08;92.02;94772.34;1667639;85;21195;-52
2022/07/02 03:07:33;;;;;;;15.15;12.15;;;;;;;17.09;91.86;94778.03;1665127;85;21239;-53
2022/07/02 03:10:01;;;;;;;14.30;12.55;;;;;;;17.08;91.81;94775.88;1667348;85;21487;-53
2022/07/02 03:12:30;;;;;;;14.60;13.10;;;;;;;17.07;91.91;94775.73;1658258;85;20968;-54
2022/07/02 03:14:58;;;;;;;15.85;13.50;;;;;;;17.05;92.01;94774.69;1657230;85;21094;-53
2022/07/02 03:17:27;;;;;;;15.80;13.18;;;;;;;17.05;92.35;94766.34;1660101;85;21093;-53
2022/07/02 03:19:55;;;;;;;21.37;14.45;;;;;;;17.07;92.25;94766.00;1664211;85;21146;-52
2022/07/02 03:22:23;;;;;;;27.00;15.63;;;;;;;17.13;92.34;94760.52;1654836;84;20967;-55
2022/07/02 03:24:51;;;;;;;19.95;15.48;;;;;;;17.18;92.49;94765.36;1667741;84;21099;-53
2022/07/02 03:27:20;;;;;;;27.82;15.05;;;;;;;17.22;92.66;94770.08;1630916;86;21090;-53
2022/07/02 03:29:48;;;;;;;19.35;13.65;;;;;;;17.28;92.71;94777.88;1661632;85;20963;-54
2022/07/02 03:32:16;;;;;;;19.80;13.30;;;;;;;17.31;92.78;94778.28;1662380;85;21520;-54
2022/07/02 03:34:44;;;;;;;18.70;12.55;;;;;;;17.36;92.75;94776.98;1659149;85;21061;-54
2022/07/02 03:37:13;;;;;;;17.30;14.07;;;;;;;17.44;92.55;94777.31;1667519;85;21581;-52
2022/07/02 03:39:40;;;;;;;15.48;12.68;;;;;;;17.45;92.21;94774.67;1653180;85;20986;-52
2022/07/02 03:42:09;;;;;;;18.30;13.48;;;;;;;17.47;92.31;94767.98;1658670;85;21071;-52
2022/07/02 03:44:37;;;;;;;15.75;12.28;;;;;;;17.52;92.40;94775.61;1654175;84;21225;-53
2022/07/02 03:47:06;;;;;;;18.02;13.93;;;;;;;17.62;92.08;94775.60;1661974;85;21196;-53
2022/07/02 03:49:35;;;;;;;16.40;13.00;;;;;;;17.71;91.67;94786.55;1661138;85;21022;-52
2022/07/02 03:52:04;;;;;;;16.93;13.75;;;;;;;17.80;91.41;94782.22;1652382;85;20982;-53
2022/07/02 03:54:33;;;;;;;16.97;13.55;;;;;;;17.89;91.17;94777.86;1665739;85;21051;-53
2022/07/02 03:57:01;;;;;;;19.42;13.68;;;;;;;17.95;90.74;94782.83;1667453;85;21803;-53
2022/07/02 03:59:29;;;;;;;15.38;13.48;;;;;;;18.01;90.73;94780.87;1658801;85;20995;-53
2022/07/02 04:01:57;;;;;;;14.43;12.88;;;;;;;18.14;90.61;94773.63;1661379;85;20982;-54
2022/07/02 04:04:26;;;;;;;22.40;14.03;;;;;;;18.30;90.02;94775.81;1661041;85;21045;-53
2022/07/02 04:06:55;;;;;;;15.28;13.45;;;;;;;18.45;89.34;94775.78;1630860;86;21503;-54
2022/07/02 04:09:23;;;;;;;16.52;13.72;;;;;;;18.60;88.94;94774.21;1629574;86;21141;-53
2022/07/02 04:11:51;;;;;;;14.95;13.35;;;;;;;18.72;88.61;94772.41;1658738;85;21069;-52
2022/07/02 04:14:20;;;;;;;14.10;12.68;;;;;;;18.86;88.18;94779.80;1661926;85;20991;-54
2022/07/02 04:16:47;;;;;;;15.72;13.08;;;;;;;18.99;87.72;94777.34;1624883;86;21034;-53
2022/07/02 04:19:16;;;;;;;17.27;13.75;;;;;;;19.07;87.35;94788.16;1614237;88;21089;-54
2022/07/02 04:21:44;;;;;;;16.45;13.75;;;;;;;19.20;87.06;94788.47;1633692;85;21293;-53
2022/07/02 04:24:12;;;;;;;18.75;14.83;;;;;;;19.31;86.73;94787.75;1658078;84;21567;-53
2022/07/02 04:26:40;;;;;;;21.27;14.75;;;;;;;19.44;86.30;94795.03;1662167;85;20973;-52
2022/07/02 04:29:08;;;;;;;13.48;12.07;;;;;;;19.56;85.77;94798.73;1652290;85;21088;-52
2022/07/02 04:31:36;;;;;;;17.77;13.70;;;;;;;19.74;84.53;94810.08;1675959;84;21030;-54
2022/07/02 04:34:05;;;;;;;15.45;13.28;;;;;;;19.85;83.41;94806.67;1651894;85;21169;-52
2022/07/02 04:36:33;;;;;;;18.92;13.45;;;;;;;19.96;82.61;94807.31;1661384;85;21165;-52
2022/07/02 04:39:02;;;;;;;21.23;14.07;;;;;;;20.02;81.75;94814.47;1667733;85;21255;-52
2022/07/02 04:41:30;;;;;;;14.33;12.40;;;;;;;20.06;81.39;94814.97;1670133;85;20979;-53
2022/07/02 04:43:59;;;;;;;21.80;14.87;;;;;;;20.12;81.25;94836.69;1672457;84;21019;-54
2022/07/02 04:46:27;;;;;;;16.57;12.25;;;;;;;20.17;81.14;94852.71;1659333;85;20980;-53
2022/07/02 04:48:55;;;;;;;29.77;12.78;;;;;;;20.21;80.64;94853.22;1666490;85;21099;-53
2022/07/02 04:51:23;;;;;;;21.33;13.28;;;;;;;20.18;80.28;94851.44;1664714;85;20986;-53
2022/07/02 04:53:52;;;;;;;21.95;12.20;;;;;;;20.19;80.57;94847.38;1668415;85;20978;-54
2022/07/02 04:56:20;;;;;;;26.40;13.32;;;;;;;20.25;80.17;94839.75;1659700;85;20984;-52
2022/07/02 04:58:48;;;;;;;19.17;13.32;;;;;;;20.28;80.12;94847.11;1659682;85;21241;-53
2022/07/02 05:01:17;;;;;;;20.52;14.00;;;;;;;20.33;80.42;94861.72;1657084;85;21146;-54
2022/07/02 05:03:45;;;;;;;17.45;13.25;;;;;;;20.41;80.45;94865.55;1657650;85;21049;-55
2022/07/02 05:06:13;;;;;;;19.50;13.05;;;;;;;20.41;80.23;94866.95;1659277;84;21010;-55
2022/07/02 05:08:42;;;;;;;22.40;14.43;;;;;;;20.39;80.17;94871.63;1642840;85;21055;-54
2022/07/02 05:11:10;;;;;;;20.12;14.98;;;;;;;20.40;80.30;94871.02;1648441;85;21208;-55
2022/07/02 05:13:38;;;;;;;15.95;13.53;;;;;;;20.45;80.38;94874.44;1650043;85;21026;-55
2022/07/02 05:16:06;;;;;;;16.50;13.22;;;;;;;20.51;79.93;94884.97;1656886;85;21090;-53
2022/07/02 05:18:35;;;;;;;19.15;14.00;;;;;;;20.52;80.00;94883.08;1653759;85;21027;-53
2022/07/02 05:21:03;;;;;;;17.82;14.18;;;;;;;20.56;80.05;94892.63;1655361;85;21050;-55
2022/07/02 05:23:32;;;;;;;21.37;14.03;;;;;;;20.62;80.10;94903.94;1659164;85;21893;-54
2022/07/02 05:26:00;;;;;;;18.60;13.08;;;;;;;20.67;80.13;94907.98;1608709;85;20988;-54
2022/07/02 05:28:28;;;;;;;15.55;13.13;;;;;;;20.67;80.30;94904.56;1655967;85;21073;-53
2022/07/02 05:30:58;;;;;;;16.50;12.75;;;;;;;20.70;80.20;94913.98;1658546;84;21086;-53
2022/07/02 05:33:26;;;;;;;18.70;14.18;;;;;;;20.69;79.70;94909.63;1656674;85;21527;-53
2022/07/02 05:35:55;;;;;;;16.07;14.45;;;;;;;20.70;79.54;94912.58;1656384;85;21183;-53
2022/07/02 05:38:23;;;;;;;20.32;13.83;;;;;;;20.71;79.33;94908.52;1657864;85;20971;-52
2022/07/02 05:40:51;;;;;;;16.73;12.33;;;;;;;20.77;79.48;94910.66;1669751;84;21602;-53
2022/07/02 05:43:19;;;;;;;15.32;12.35;;;;;;;20.84;79.34;94903.17;1668524;84;21064;-53
2022/07/02 05:45:48;;;;;;;18.20;13.68;;;;;;;20.90;79.09;94916.54;1684195;85;21006;-53
2022/07/02 05:48:18;;;;;;;20.72;14.33;;;;;;;20.92;79.02;94916.79;1670088;85;21492;-53
2022/07/02 05:50:46;;;;;;;18.37;14.18;;;;;;;20.97;78.95;94927.20;1655303;85;21513;-54
2022/07/02 05:53:14;;;;;;;19.10;14.05;;;;;;;21.02;78.86;94921.61;1661194;84;21058;-53
2022/07/02 05:55:42;;;;;;;19.42;14.45;;;;;;;21.08;78.75;94925.80;1661665;84;21138;-54
2022/07/02 05:58:12;;;;;;;19.10;13.88;;;;;;;21.17;78.67;94932.52;1660091;85;21259;-53
2022/07/02 06:00:41;;;;;;;17.90;15.10;;;;;;;21.27;78.80;94934.53;1666937;85;21189;-54
2022/07/02 06:03:09;;;;;;;40.63;22.98;;;;;;;21.35;78.86;94931.35;1663055;85;21007;-54
2022/07/02 06:08:23;;;;;;;59.77;30.50;;;;;;;21.54;77.85;94932.95;1674855;85;21545;-53
2022/07/02 06:10:56;;;;;;;49.18;29.77;;;;;;;21.70;77.61;94940.56;1656192;85;21090;-54
2022/07/02 06:13:24;;;;;;;53.33;30.03;;;;;;;21.83;77.49;94942.18;1661369;85;21384;-54
2022/07/02 06:15:54;;;;;;;43.30;27.20;;;;;;;21.94;76.76;94946.31;1666151;84;21772;-54
2022/07/02 06:18:23;;;;;;;33.33;22.48;;;;;;;22.04;76.47;94942.08;1668646;85;21569;-54
2022/07/02 06:20:51;;;;;;;31.27;22.60;;;;;;;22.15;75.73;94950.41;1662158;85;21263;-53
2022/07/02 06:23:21;;;;;;;35.85;20.65;;;;;;;22.26;75.50;94955.23;1638866;86;20981;-54
2022/07/02 06:25:49;;;;;;;33.55;20.72;;;;;;;22.35;75.46;94958.48;1656675;85;22140;-53
2022/07/02 06:28:18;;;;;;;30.48;19.15;;;;;;;22.40;75.34;94971.73;1662383;84;21069;-55
2022/07/02 06:30:46;;;;;;;31.45;20.80;;;;;;;22.45;75.38;94970.94;1666308;85;21728;-54
2022/07/02 06:33:15;;;;;;;28.15;18.73;;;;;;;22.51;75.26;94975.86;1663386;85;21185;-55
2022/07/02 06:35:43;;;;;;;26.02;18.50;;;;;;;22.55;75.35;94979.80;1652158;85;21065;-54
2022/07/02 06:38:11;;;;;;;24.92;18.57;;;;;;;22.57;75.56;94985.02;1670645;85;21201;-55
2022/07/02 06:40:40;;;;;;;29.55;17.65;;;;;;;22.57;75.60;94985.02;1635481;86;22029;-54
2022/07/02 06:43:08;;;;;;;31.05;18.35;;;;;;;22.62;75.69;94989.83;1617249;88;21613;-54
2022/07/02 06:45:36;;;;;;;27.10;18.65;;;;;;;22.66;75.74;94984.70;1611673;87;21044;-54
2022/07/02 06:48:06;;;;;;;22.77;15.53;;;;;;;22.76;75.98;94990.75;1618488;88;21113;-54
2022/07/02 06:50:34;;;;;;;26.97;18.17;;;;;;;22.85;76.17;94989.05;1615635;88;21319;-54
2022/07/02 06:53:02;;;;;;;21.85;16.15;;;;;;;22.92;76.29;94989.25;1566108;88;21031;-53
2022/07/02 06:55:32;;;;;;;32.30;24.25;;;;;;;23.01;76.20;94990.31;1616331;87;21073;-54
2022/07/02 06:58:00;;;;;;;20.82;14.28;;;;;;;23.12;76.19;94997.91;1619114;88;21043;-55
2022/07/02 07:00:29;;;;;;;15.53;11.97;;;;;;;23.21;75.48;95001.16;1616426;88;21141;-54
2022/07/02 07:02:57;;;;;;;17.27;12.00;;;;;;;23.25;74.84;95011.48;1608535;88;21126;-53
2022/07/02 07:05:27;;;;;;;18.27;12.60;;;;;;;23.27;74.99;95019.36;1614615;88;21029;-56
2022/07/02 07:07:56;;;;;;;19.95;10.82;;;;;;;23.30;75.89;95018.31;1615977;88;21095;-53
2022/07/02 07:10:25;;;;;;;16.37;10.55;;;;;;;23.34;76.35;95031.42;1630630;87;21030;-54
2022/07/02 07:12:54;;;;;;;15.03;10.30;;;;;;;23.38;76.40;95031.26;1637266;86;21063;-54
2022/07/02 07:15:22;;;;;;;15.00;9.55;;;;;;;23.40;76.15;95035.71;1629615;86;21201;-54
2022/07/02 07:17:50;;;;;;;22.65;12.35;;;;;;;23.42;75.93;95025.38;1625507;86;21082;-54
2022/07/02 07:20:26;;;;;;;29.92;18.23;;;;;;;23.34;75.55;95029.39;1629373;87;21010;-55
2022/07/02 07:22:49;;;;;;;42.17;21.23;;;;;;;23.22;76.68;95033.56;1666849;85;21099;-54
2022/07/02 07:25:18;;;;;;;34.80;18.27;;;;;;;23.12;77.42;95044.23;1628176;86;21137;-54
2022/07/02 07:27:46;;;;;;;29.77;16.25;;;;;;;23.11;77.59;95056.12;1622846;88;21206;-54
2022/07/02 07:30:14;;;;;;;32.65;16.23;;;;;;;23.16;77.21;95051.09;1608729;88;21045;-54
2022/07/02 07:32:43;;;;;;;20.32;13.68;;;;;;;23.20;76.12;95043.15;1665222;85;21047;-55
2022/07/02 07:35:11;;;;;;;29.15;20.32;;;;;;;23.21;76.03;95037.66;1657977;85;20967;-57
2022/07/02 07:37:41;;;;;;;24.40;14.03;;;;;;;23.19;76.22;95034.61;1655339;85;21000;-54
2022/07/02 07:40:11;;;;;;;26.42;14.58;;;;;;;23.15;76.69;95032.73;1612248;85;39530;-54
2022/07/02 07:42:39;;;;;;;56.63;38.42;;;;;;;23.16;77.20;95034.88;1657775;84;21537;-54
2022/07/02 07:45:09;;;;;;;20.32;14.33;;;;;;;23.19;78.33;95033.86;1657863;85;21098;-54
2022/07/02 07:47:37;;;;;;;21.85;13.48;;;;;;;23.13;78.26;95026.88;1657702;85;21097;-54
2022/07/02 07:50:07;;;;;;;18.45;10.85;;;;;;;23.03;78.52;95027.04;1662860;84;20972;-55
2022/07/02 07:52:35;;;;;;;15.78;10.63;;;;;;;22.95;79.21;95017.67;1662184;85;21278;-55
2022/07/02 07:55:05;;;;;;;12.82;9.95;;;;;;;22.87;79.92;95016.69;1650826;85;20983;-54
2022/07/02 07:57:34;;;;;;;21.50;11.48;;;;;;;22.86;80.78;95017.97;1649481;85;21121;-55
2022/07/02 08:00:05;;;;;;;24.65;13.40;;;;;;;22.89;81.28;95020.39;1654981;85;21199;-54
2022/07/02 08:02:36;;;;;;;22.27;13.88;;;;;;;22.96;81.74;95026.20;1637732;85;21132;-55
2022/07/02 08:05:06;;;;;;;23.50;14.68;;;;;;;23.00;82.22;95021.06;1590860;88;21352;-54
2022/07/02 08:07:41;;;;;;;16.15;12.53;;;;;;;23.03;82.95;95017.22;1601344;88;20998;-55
2022/07/02 08:10:13;;;;;;;19.27;12.82;;;;;;;23.11;83.07;95011.20;1603441;88;21035;-54
2022/07/02 08:12:44;;;;;;;14.38;11.20;;;;;;;23.23;82.15;95004.85;1603276;88;21002;-54
2022/07/02 08:15:13;;;;;;;15.28;11.10;;;;;;;23.30;81.72;94993.81;1623587;88;21031;-55
2022/07/02 08:17:40;;;;;;;13.93;10.98;;;;;;;23.37;80.72;94996.70;1623575;88;21224;-55
2022/07/02 08:20:10;;;;;;;12.98;9.68;;;;;;;23.49;80.74;94990.45;1623304;88;20960;-54
2022/07/02 08:22:40;;;;;;;14.90;10.43;;;;;;;23.62;79.35;94989.80;1662604;85;21007;-54
2022/07/02 08:25:09;;;;;;;10.58;8.55;;;;;;;23.71;79.74;94998.65;1653235;84;21195;-55
2022/07/02 08:27:37;;;;;;;12.00;9.60;;;;;;;23.84;78.64;94993.19;1635797;86;21767;-55
2022/07/02 08:30:06;;;;;;;15.53;9.13;;;;;;;23.96;78.05;94994.56;1636796;85;22182;-54
2022/07/02 08:32:35;;;;;;;12.47;9.55;;;;;;;24.09;77.74;94989.05;1659442;85;21155;-55
2022/07/02 08:35:06;;;;;;;12.13;9.25;;;;;;;24.19;76.96;94983.19;1638607;85;21576;-56
2022/07/02 08:37:35;;;;;;;14.43;9.68;;;;;;;24.32;76.31;94981.86;1653486;85;21556;-55
2022/07/02 08:40:06;;;;;;;15.40;9.28;;;;;;;24.42;74.19;94978.80;1648214;85;21066;-55
2022/07/02 08:42:37;;;;;;;12.05;9.50;;;;;;;24.52;74.04;94977.14;1656677;84;21272;-56
2022/07/02 08:45:08;;;;;;;11.18;9.85;;;;;;;24.59;72.31;94962.48;1655313;85;21112;-55
2022/07/02 08:47:39;;;;;;;10.53;9.18;;;;;;;24.64;72.59;94969.44;1661107;85;21031;-55
2022/07/02 08:50:08;;;;;;;13.13;8.90;;;;;;;24.74;72.45;94967.00;1635329;85;21034;-54
2022/07/02 08:52:39;;;;;;;11.08;8.48;;;;;;;24.79;72.44;94968.95;1655849;85;20974;-53
2022/07/02 08:55:07;;;;;;;10.00;8.60;;;;;;;24.87;72.00;94970.63;1652079;85;21130;-54
2022/07/02 08:57:35;;;;;;;12.37;9.98;;;;;;;24.89;70.64;94970.84;1670979;84;21147;-54
2022/07/02 09:00:04;;;;;;;10.20;9.10;;;;;;;24.93;70.61;94969.88;1673003;85;21246;-55
2022/07/02 09:02:33;;;;;;;13.35;9.78;;;;;;;25.02;70.84;94977.95;1644295;85;21142;-54
2022/07/02 09:05:02;;;;;;;15.40;8.63;;;;;;;25.12;70.07;94981.13;1659946;85;21244;-54
2022/07/02 09:07:30;;;;;;;15.23;9.88;;;;;;;25.20;69.40;94985.63;1610424;85;21550;-55
2022/07/02 09:09:58;;;;;;;13.78;9.30;;;;;;;25.32;69.91;94990.42;1657500;84;20971;-55
2022/07/02 09:12:26;;;;;;;14.35;9.90;;;;;;;25.47;68.64;94987.86;1662903;84;21019;-55
2022/07/02 09:14:54;;;;;;;14.65;9.95;;;;;;;25.62;68.06;94985.27;1665054;84;21003;-53
2022/07/02 09:17:23;;;;;;;20.62;10.23;;;;;;;25.70;68.02;94975.64;1671428;83;21602;-56
2022/07/02 09:19:50;;;;;;;19.73;10.15;;;;;;;25.81;66.79;94980.34;1672639;83;21107;-54
2022/07/02 09:22:19;;;;;;;13.62;10.13;;;;;;;25.92;66.52;94975.91;1660539;85;21072;-54
2022/07/02 09:24:47;;;;;;;12.70;9.43;;;;;;;26.00;65.62;94978.31;1667660;85;21045;-54
2022/07/02 09:27:16;;;;;;;13.72;9.13;;;;;;;26.09;64.48;94970.81;1663492;85;21027;-53
2022/07/02 09:29:54;;;;;;;14.75;9.23;;;;;;;26.18;63.60;94973.20;1658422;84;21061;-54
2022/07/02 09:32:23;;;;;;;11.53;8.50;;;;;;;26.28;63.25;94970.03;1666115;84;21244;-54
2022/07/02 09:34:52;;;;;;;13.95;9.10;;;;;;;26.40;63.90;94965.69;1667136;85;21081;-54
2022/07/02 09:37:24;;;;;;;11.15;8.90;;;;;;;26.49;63.25;94963.84;1658380;84;21026;-54
2022/07/02 09:39:53;;;;;;;14.80;9.00;;;;;;;26.66;62.39;94957.84;1660982;85;21090;-54
2022/07/02 09:42:33;;;;;;;14.55;9.63;;;;;;;26.86;61.75;94955.05;1665201;84;21081;-54
2022/07/02 09:45:06;;;;;;;12.58;8.45;;;;;;;27.09;61.16;94949.64;1654468;84;21426;-54
2022/07/02 09:47:48;;;;;;;11.95;8.38;;;;;;;27.34;61.04;94958.66;1664130;85;21126;-55
2022/07/02 09:50:18;;;;;;;20.97;9.30;;;;;;;27.59;60.27;94955.57;1662405;85;21007;-55
2022/07/02 09:52:55;;;;;;;11.97;8.48;;;;;;;27.86;59.45;94947.05;1656872;85;21539;-55
2022/07/02 09:55:28;;;;;;;14.43;7.83;;;;;;;28.14;58.12;94948.44;1668687;85;21126;-53
2022/07/02 09:58:00;;;;;;;12.37;8.68;;;;;;;28.38;57.49;94946.63;1657650;85;21072;-55
2022/07/02 10:00:47;;;;;;;11.95;8.20;;;;;;;28.52;57.03;94950.83;1637507;85;20997;-58
2022/07/02 10:03:15;;;;;;;11.20;8.40;;;;;;;28.65;56.51;94952.11;1665275;84;21018;-54
2022/07/02 10:05:48;;;;;;;10.50;7.20;;;;;;;28.69;55.37;94943.36;1656010;85;21134;-53
2022/07/02 10:08:16;;;;;;;9.07;6.90;;;;;;;28.74;55.08;94938.84;1666174;84;20992;-54
2022/07/02 10:10:45;;;;;;;13.00;7.45;;;;;;;28.76;53.75;94940.45;1667120;84;21226;-55
2022/07/02 10:13:15;;;;;;;12.58;7.75;;;;;;;28.68;53.94;94941.07;1668459;84;21242;-55
2022/07/02 10:15:53;;;;;;;12.00;8.00;;;;;;;28.62;54.33;94937.66;1663487;84;21095;-56
2022/07/02 10:18:23;;;;;;;11.50;8.28;;;;;;;28.68;54.17;94943.91;1656320;85;21208;-54
2022/07/02 10:20:54;;;;;;;9.45;7.58;;;;;;;28.79;53.57;94940.74;1658812;85;21571;-54
2022/07/02 10:23:22;;;;;;;9.93;7.92;;;;;;;28.90;53.08;94947.48;1659501;84;21236;-53
2022/07/02 10:25:50;;;;;;;11.70;8.75;;;;;;;28.95;53.24;94945.16;1669805;85;20967;-54
2022/07/02 10:28:19;;;;;;;11.57;8.10;;;;;;;29.03;52.08;94936.01;1660680;84;21102;-54
2022/07/02 10:30:48;;;;;;;11.03;7.85;;;;;;;29.07;52.61;94940.64;1658919;85;21088;-54
2022/07/02 10:33:38;;;;;;;11.68;7.40;;;;;;;29.10;51.56;94930.36;1665762;84;21534;-55
2022/07/02 10:36:10;;;;;;;10.15;7.20;;;;;;;29.14;50.19;94935.66;1672008;85;21067;-54
2022/07/02 10:38:40;;;;;;;17.98;8.40;;;;;;;29.15;50.39;94937.17;1664110;84;21232;-54
2022/07/02 10:41:09;;;;;;;14.53;8.90;;;;;;;29.11;50.11;94936.80;1661143;85;20987;-55
2022/07/02 10:43:39;;;;;;;13.98;8.80;;;;;;;29.07;50.51;94930.08;1665292;84;21472;-53
2022/07/02 10:46:09;;;;;;;12.50;8.85;;;;;;;29.11;49.98;94931.13;1665290;84;20972;-54
2022/07/02 10:48:51;;;;;;;13.78;8.65;;;;;;;29.12;49.88;94929.81;1648349;85;21189;-53
2022/07/02 10:51:26;;;;;;;10.75;8.68;;;;;;;29.14;50.06;94932.16;1648443;85;21038;-54
2022/07/02 10:54:02;;;;;;;15.60;9.43;;;;;;;29.25;49.86;94935.28;1681983;85;21090;-54
2022/07/02 10:56:55;;;;;;;14.50;9.03;;;;;;;29.36;49.86;94942.02;1651760;85;21090;-55
2022/07/02 10:59:23;;;;;;;11.93;8.35;;;;;;;29.49;49.30;94941.88;1657492;85;21237;-54
2022/07/02 11:02:07;;;;;;;12.28;8.35;;;;;;;29.54;48.61;94938.09;1659945;84;21174;-55
2022/07/02 11:04:35;;;;;;;10.48;7.60;;;;;;;29.53;48.83;94939.41;1656475;84;21002;-54
2022/07/02 11:07:14;;;;;;;14.83;8.23;;;;;;;29.53;48.65;94926.65;1638763;85;21067;-54
2022/07/02 11:09:53;;;;;;;16.62;8.40;;;;;;;29.54;48.26;94931.00;1659276;85;20977;-57
2022/07/02 11:12:30;;;;;;;13.15;8.45;;;;;;;29.52;48.39;94927.97;1659775;85;20983;-55
2022/07/02 11:14:59;;;;;;;11.15;7.97;;;;;;;29.46;47.96;94930.22;1664126;85;21244;-54
2022/07/02 11:17:27;;;;;;;14.87;8.38;;;;;;;29.36;48.11;94930.67;1655999;85;21130;-55
2022/07/02 11:19:55;;;;;;;16.02;7.20;;;;;;;29.32;48.08;94926.05;1662334;85;21194;-55
2022/07/02 11:22:23;;;;;;;14.95;7.92;;;;;;;29.30;48.00;94924.44;1650470;85;21611;-55
2022/07/02 11:24:54;;;;;;;9.43;7.75;;;;;;;29.31;48.50;94916.77;1665238;85;21070;-54
2022/07/02 11:27:22;;;;;;;9.85;7.50;;;;;;;29.32;47.88;94928.88;1643917;86;21174;-54
2022/07/02 11:29:54;;;;;;;12.70;8.25;;;;;;;29.46;47.41;94921.71;1657613;85;21086;-54
2022/07/02 11:32:23;;;;;;;13.08;7.97;;;;;;;29.68;47.61;94920.97;1673758;85;21112;-54
2022/07/02 11:35:00;;;;;;;11.93;7.55;;;;;;;29.86;46.50;94922.66;1658585;85;21038;-54